createdAt,value
2022-11-23T00:00:22.234Z,4.07
2022-11-23T00:02:54.116Z,4.03
2022-11-23T00:05:21.480Z,3.72
2022-11-23T00:07:48.492Z,2.63
2022-11-23T00:10:46.313Z,4.13
2022-11-23T00:13:16.684Z,2.67
2022-11-23T00:15:47.315Z,2.60
2022-11-23T00:18:31.400Z,3.00
2022-11-23T00:21:00.486Z,3.92
2022-11-23T00:23:27.550Z,3.65
2022-11-23T00:25:54.457Z,4.28
2022-11-23T00:28:21.202Z,2.50
2022-11-23T00:30:52.788Z,2.95
2022-11-23T00:33:20.890Z,2.35
2022-11-23T00:35:47.915Z,3.15
2022-11-23T00:38:14.846Z,2.83
2022-11-23T00:40:41.855Z,3.53
2022-11-23T00:43:08.653Z,4.72
2022-11-23T00:45:35.511Z,3.97
2022-11-23T00:48:02.831Z,3.22
2022-11-23T00:50:30.272Z,2.55
2022-11-23T00:53:13.843Z,2.65
2022-11-23T00:55:41.924Z,2.95
2022-11-23T00:58:08.956Z,4.82
2022-11-23T01:00:36.041Z,5.13
2022-11-23T01:03:02.954Z,2.42
2022-11-23T01:05:36.406Z,2.15
2022-11-23T01:08:05.840Z,3.03
2022-11-23T01:10:32.999Z,2.97
2022-11-23T01:14:07.543Z,2.83
2022-11-23T01:15:54.807Z,2.80
2022-11-23T01:18:24.186Z,2.85
2022-11-23T01:20:52.665Z,2.83
2022-11-23T01:23:19.392Z,2.80
2022-11-23T01:25:49.264Z,2.13
2022-11-23T01:28:17.731Z,3.75
2022-11-23T01:30:44.517Z,6.28
2022-11-23T01:33:11.420Z,2.88
2022-11-23T01:35:39.738Z,2.50
2022-11-23T01:38:07.670Z,4.40
2022-11-23T01:40:42.388Z,2.97
2022-11-23T01:43:18.396Z,5.05
2022-11-23T01:45:55.762Z,2.78
2022-11-23T01:48:40.889Z,3.90
2022-11-23T01:51:14.919Z,5.05
2022-11-23T01:53:43.535Z,3.20
2022-11-23T01:56:17.670Z,2.97
2022-11-23T01:58:51.735Z,2.50
2022-11-23T02:01:24.969Z,3.28
2022-11-23T02:03:55.137Z,2.65
2022-11-23T02:06:23.677Z,3.75
2022-11-23T02:08:56.510Z,2.25
2022-11-23T02:11:33.873Z,3.13
2022-11-23T02:14:00.911Z,2.78
2022-11-23T02:16:34.261Z,3.55
2022-11-23T02:19:01.148Z,3.63
2022-11-23T02:21:36.862Z,3.50
2022-11-23T02:24:31.046Z,3.50
2022-11-23T02:27:07.985Z,5.60
2022-11-23T02:29:40.034Z,4.00
2022-11-23T02:32:08.380Z,3.70
2022-11-23T02:34:38.664Z,4.22
2022-11-23T02:37:06.478Z,3.63
2022-11-23T02:39:40.895Z,3.35
2022-11-23T02:45:07.015Z,5.00
2022-11-23T02:47:38.343Z,5.20
2022-11-23T02:50:05.491Z,3.35
2022-11-23T02:52:32.532Z,4.15
2022-11-23T02:55:07.410Z,4.00
2022-11-23T02:57:47.361Z,4.57
2022-11-23T03:00:19.686Z,4.15
2022-11-23T03:02:59.711Z,5.20
2022-11-23T03:05:32.608Z,3.92
2022-11-23T03:08:07.782Z,4.63
2022-11-23T03:10:43.404Z,4.22
2022-11-23T03:13:14.560Z,5.30
2022-11-23T03:15:54.828Z,3.80
2022-11-23T03:18:33.296Z,2.42
2022-11-23T03:21:12.816Z,3.17
2022-11-23T03:23:43.259Z,2.95
2022-11-23T03:26:15.737Z,3.08
2022-11-23T03:28:52.704Z,5.47
2022-11-23T03:31:40.074Z,4.35
2022-11-23T03:34:16.509Z,3.78
2022-11-23T03:36:53.019Z,4.35
2022-11-23T03:39:23.823Z,3.83
2022-11-23T03:42:00.575Z,2.45
2022-11-23T03:44:35.159Z,3.42
2022-11-23T03:47:04.258Z,2.70
2022-11-23T03:49:44.098Z,1.95
2022-11-23T03:52:16.240Z,2.95
2022-11-23T03:57:36.143Z,2.83
2022-11-23T04:00:10.620Z,1.85
2022-11-23T04:02:44.191Z,3.55
2022-11-23T04:05:18.366Z,4.15
2022-11-23T04:08:05.180Z,3.65
2022-11-23T04:10:46.880Z,4.05
2022-11-23T04:13:26.974Z,2.40
2022-11-23T04:16:44.516Z,3.58
2022-11-23T04:19:11.244Z,2.92
2022-11-23T04:21:56.107Z,3.15
2022-11-23T04:24:34.367Z,4.20
2022-11-23T04:27:25.584Z,1.70
2022-11-23T04:29:59.809Z,3.25
2022-11-23T04:32:54.936Z,3.47
2022-11-23T04:35:31.280Z,1.70
2022-11-23T04:38:19.372Z,1.75
2022-11-23T04:40:59.432Z,2.97
2022-11-23T04:43:38.863Z,3.60
2022-11-23T04:46:07.085Z,1.65
2022-11-23T04:49:14.177Z,2.53
2022-11-23T04:51:48.185Z,1.42
2022-11-23T04:54:20.957Z,1.50
2022-11-23T04:57:03.818Z,1.90
2022-11-23T04:59:40.921Z,1.77
2022-11-23T05:02:31.821Z,5.15
2022-11-23T05:05:26.909Z,1.90
2022-11-23T05:08:23.390Z,2.65
2022-11-23T05:11:04.961Z,2.00
2022-11-23T05:13:49.880Z,2.78
2022-11-23T05:16:27.236Z,2.30
2022-11-23T05:19:26.395Z,2.05
2022-11-23T05:21:57.514Z,3.88
2022-11-23T05:25:05.821Z,2.28
2022-11-23T05:27:40.679Z,2.03
2022-11-23T05:30:17.228Z,2.00
2022-11-23T05:33:01.397Z,2.67
2022-11-23T05:35:38.889Z,5.30
2022-11-23T05:38:27.307Z,5.65
2022-11-23T05:41:13.629Z,4.15
2022-11-23T05:43:49.161Z,6.30
2022-11-23T05:46:50.159Z,3.78
2022-11-23T05:52:20.660Z,5.47
2022-11-23T05:55:04.219Z,4.85
2022-11-23T05:57:41.423Z,6.70
2022-11-23T06:00:12.616Z,4.85
2022-11-23T06:02:45.110Z,5.60
2022-11-23T06:05:17.914Z,9.18
2022-11-23T06:08:14.239Z,9.50
2022-11-23T06:10:58.799Z,6.63
2022-11-23T06:13:29.291Z,10.50
2022-11-23T06:16:18.541Z,9.50
2022-11-23T06:18:55.466Z,8.57
2022-11-23T06:21:50.569Z,9.98
2022-11-23T06:24:25.685Z,8.55
2022-11-23T06:26:52.940Z,7.38
2022-11-23T06:29:23.982Z,8.60
2022-11-23T06:32:17.358Z,7.82
2022-11-23T06:34:49.927Z,6.75
2022-11-23T06:37:26.883Z,10.70
2022-11-23T06:40:04.368Z,9.32
2022-11-23T06:42:39.043Z,9.50
2022-11-23T06:45:09.541Z,9.82
2022-11-23T06:47:47.346Z,9.65
2022-11-23T06:50:15.896Z,8.98
2022-11-23T06:52:47.552Z,9.80
2022-11-23T06:58:04.274Z,8.20
2022-11-23T07:00:44.957Z,7.28
2022-11-23T07:03:23.850Z,7.97
2022-11-23T07:06:08.700Z,11.45
2022-11-23T07:08:47.588Z,6.75
2022-11-23T07:11:20.285Z,6.53
2022-11-23T07:13:49.318Z,8.48
2022-11-23T07:16:16.269Z,13.32
2022-11-23T07:18:43.205Z,11.45
2022-11-23T07:21:11.427Z,12.00
2022-11-23T07:23:43.666Z,9.20
2022-11-23T07:26:10.879Z,11.73
2022-11-23T07:28:38.024Z,7.38
2022-11-23T07:31:12.046Z,12.05
2022-11-23T07:33:40.505Z,13.52
2022-11-23T07:36:08.290Z,12.27
2022-11-23T07:38:36.010Z,11.38
2022-11-23T07:41:14.859Z,12.27
2022-11-23T07:43:42.513Z,10.25
2022-11-23T07:46:11.584Z,10.73
2022-11-23T07:48:38.757Z,12.52
2022-11-23T07:51:08.348Z,16.98
2022-11-23T07:53:36.969Z,24.65
2022-11-23T07:56:05.244Z,9.70
2022-11-23T07:58:53.729Z,10.80
2022-11-23T08:01:23.869Z,13.90
2022-11-23T08:03:52.571Z,7.75
2022-11-23T08:06:20.162Z,8.23
2022-11-23T08:08:48.143Z,17.98
2022-11-23T08:11:20.987Z,11.73
2022-11-23T08:13:50.744Z,10.35
2022-11-23T08:16:20.832Z,8.68
2022-11-23T08:18:50.916Z,8.77
2022-11-23T08:21:21.305Z,13.50
2022-11-23T08:23:51.925Z,8.38
2022-11-23T08:26:24.124Z,6.82
2022-11-23T08:28:52.157Z,8.15
2022-11-23T08:31:43.029Z,12.93
2022-11-23T08:34:20.486Z,28.10
2022-11-23T08:37:02.632Z,5.05
2022-11-23T08:39:43.610Z,16.55
2022-11-23T08:42:13.650Z,18.27
2022-11-23T08:44:49.244Z,3.80
2022-11-23T08:47:19.582Z,2.83
2022-11-23T08:49:46.704Z,18.30
2022-11-23T08:52:15.182Z,14.55
2022-11-23T08:54:46.626Z,9.88
2022-11-23T08:57:24.568Z,7.20
2022-11-23T08:59:52.899Z,23.95
2022-11-23T09:02:21.193Z,7.15
2022-11-23T09:04:55.741Z,28.10
2022-11-23T09:07:29.178Z,21.02
2022-11-23T09:09:57.542Z,10.52
2022-11-23T09:12:26.078Z,12.57
2022-11-23T09:14:55.696Z,24.80
2022-11-23T09:17:25.116Z,12.23
2022-11-23T09:19:59.508Z,29.65
2022-11-23T09:22:26.754Z,13.15
2022-11-23T09:24:56.677Z,10.43
2022-11-23T09:27:26.405Z,9.13
2022-11-23T09:29:56.462Z,5.85
2022-11-23T09:32:23.618Z,3.03
2022-11-23T09:34:50.643Z,6.45
2022-11-23T09:37:19.174Z,7.05
2022-11-23T09:39:49.430Z,2.63
2022-11-23T09:43:09.023Z,17.85
2022-11-23T09:45:53.479Z,13.90
2022-11-23T09:48:30.561Z,34.10
2022-11-23T09:51:21.247Z,20.00
2022-11-23T09:54:08.247Z,3.58
2022-11-23T09:56:41.798Z,3.83
2022-11-23T09:59:42.355Z,26.90
2022-11-23T10:02:23.816Z,27.48
2022-11-23T10:05:00.227Z,8.77
2022-11-23T10:07:37.351Z,13.27
2022-11-23T10:10:33.119Z,9.50
2022-11-23T10:13:40.886Z,8.90
2022-11-23T10:16:28.445Z,8.52
2022-11-23T10:19:35.572Z,6.65
2022-11-23T10:22:45.965Z,8.27
2022-11-23T10:25:21.725Z,1.80
2022-11-23T10:28:00.720Z,2.65
2022-11-23T10:30:28.034Z,8.02
2022-11-23T10:33:19.306Z,8.07
2022-11-23T10:35:48.980Z,2.73
2022-11-23T10:38:19.420Z,5.53
2022-11-23T10:41:12.461Z,4.20
2022-11-23T10:44:04.630Z,5.40
2022-11-23T10:46:40.666Z,4.30
2022-11-23T10:49:20.121Z,4.05
2022-11-23T10:52:05.291Z,3.53
2022-11-23T10:54:36.033Z,5.43
2022-11-23T10:57:31.429Z,8.57
2022-11-23T11:00:11.024Z,1.73
2022-11-23T11:02:45.537Z,4.05
2022-11-23T11:06:08.645Z,4.40
2022-11-23T11:08:37.539Z,5.90
2022-11-23T11:11:09.376Z,8.13
2022-11-23T11:16:37.785Z,10.73
2022-11-23T11:19:33.866Z,5.97
2022-11-23T11:22:26.881Z,4.35
2022-11-23T11:24:54.717Z,6.95
2022-11-23T11:27:24.691Z,4.97
2022-11-23T11:30:17.501Z,7.30
2022-11-23T11:33:21.540Z,2.95
2022-11-23T11:35:55.584Z,4.68
2022-11-23T11:39:14.938Z,4.60
2022-11-23T11:41:45.096Z,4.53
2022-11-23T11:44:27.042Z,4.03
2022-11-23T11:49:36.583Z,2.72
2022-11-23T11:52:11.893Z,12.88
2022-11-23T11:55:15.232Z,2.92
2022-11-23T11:57:58.734Z,7.35
2022-11-23T12:00:27.012Z,4.35
2022-11-23T12:03:23.788Z,3.90
2022-11-23T12:06:01.841Z,5.57
2022-11-23T12:09:07.472Z,4.65
2022-11-23T12:11:37.410Z,3.28
2022-11-23T12:14:08.821Z,7.68
2022-11-23T12:17:31.433Z,11.43
2022-11-23T12:20:17.453Z,5.90
2022-11-23T12:23:16.189Z,7.82
2022-11-23T12:25:58.747Z,7.03
2022-11-23T12:28:41.898Z,11.18
2022-11-23T12:31:50.420Z,5.93
2022-11-23T12:34:34.263Z,6.88
2022-11-23T12:37:22.995Z,7.70
2022-11-23T12:40:07.970Z,7.15
2022-11-23T12:42:57.029Z,3.58
2022-11-23T12:46:03.896Z,5.80
2022-11-23T12:48:40.792Z,4.07
2022-11-23T12:51:13.000Z,4.43
2022-11-23T12:54:01.135Z,5.72
2022-11-23T12:56:55.613Z,5.65
2022-11-23T12:59:25.224Z,7.22
2022-11-23T13:02:03.642Z,8.55
2022-11-23T13:04:34.652Z,5.50
2022-11-23T13:07:31.499Z,5.05
2022-11-23T13:10:29.862Z,6.10
2022-11-23T13:13:00.101Z,9.35
2022-11-23T13:16:04.179Z,10.43
2022-11-23T13:18:47.323Z,5.50
2022-11-23T13:21:29.489Z,7.53
2022-11-23T13:23:57.851Z,7.40
2022-11-23T13:26:29.096Z,4.28
2022-11-23T13:29:35.797Z,3.78
2022-11-23T13:32:49.660Z,7.20
2022-11-23T13:35:19.494Z,5.40
2022-11-23T13:38:00.119Z,6.65
2022-11-23T13:40:40.248Z,3.90
2022-11-23T13:43:22.077Z,6.88
2022-11-23T13:46:25.111Z,5.13
2022-11-23T13:48:57.828Z,5.60
2022-11-23T13:51:39.180Z,9.88
2022-11-23T13:54:22.973Z,7.70
2022-11-23T13:57:22.284Z,10.65
2022-11-23T13:59:50.989Z,5.70
2022-11-23T14:02:36.352Z,5.55
2022-11-23T14:05:40.907Z,6.35
2022-11-23T14:08:16.215Z,7.97
2022-11-23T14:10:47.842Z,5.60
2022-11-23T14:13:35.326Z,9.35
2022-11-23T14:16:10.030Z,8.20
2022-11-23T14:19:25.364Z,4.78
2022-11-23T14:22:28.460Z,7.25
2022-11-23T14:25:00.460Z,8.43
2022-11-23T14:27:48.149Z,7.30
2022-11-23T14:30:26.168Z,7.93
2022-11-23T14:33:18.138Z,5.93
2022-11-23T14:36:00.843Z,7.50
2022-11-23T14:39:05.937Z,8.05
2022-11-23T14:41:48.866Z,6.82
2022-11-23T14:44:38.127Z,10.85
2022-11-23T14:47:11.416Z,11.95
2022-11-23T14:49:53.253Z,11.73
2022-11-23T14:52:25.695Z,11.75
2022-11-23T14:54:57.926Z,9.93
2022-11-23T14:57:37.747Z,9.57
2022-11-23T15:00:12.073Z,9.63
2022-11-23T15:02:41.630Z,10.40
2022-11-23T15:05:29.968Z,7.40
2022-11-23T15:08:20.616Z,6.22
2022-11-23T15:11:12.560Z,9.23
2022-11-23T15:13:53.405Z,10.65
2022-11-23T15:16:25.493Z,6.35
2022-11-23T15:18:55.895Z,9.60
2022-11-23T15:21:27.999Z,11.05
2022-11-23T15:24:00.823Z,12.70
2022-11-23T15:26:48.954Z,13.73
2022-11-23T15:29:59.787Z,12.35
2022-11-23T15:32:32.020Z,10.70
2022-11-23T15:35:12.329Z,11.80
2022-11-23T15:37:51.300Z,12.10
2022-11-23T15:40:27.787Z,10.50
2022-11-23T15:42:56.433Z,12.85
2022-11-23T15:45:46.475Z,10.00
2022-11-23T15:48:36.435Z,14.35
2022-11-23T15:51:06.923Z,13.93
2022-11-23T15:53:48.552Z,17.63
2022-11-23T15:56:36.437Z,16.40
2022-11-23T15:59:33.037Z,17.30
2022-11-23T16:02:04.047Z,15.85
2022-11-23T16:04:40.415Z,19.88
2022-11-23T16:07:28.086Z,21.52
2022-11-23T16:10:25.369Z,23.65
2022-11-23T16:12:54.839Z,35.22
2022-11-23T16:15:41.740Z,32.78
2022-11-23T16:18:19.210Z,22.88
2022-11-23T16:20:53.346Z,30.00
2022-11-23T16:23:24.803Z,23.15
2022-11-23T16:26:07.164Z,27.42
2022-11-23T16:28:37.701Z,27.60
2022-11-23T16:31:07.359Z,27.55
2022-11-23T16:33:36.380Z,21.35
2022-11-23T16:36:04.049Z,25.98
2022-11-23T16:38:31.164Z,21.35
2022-11-23T16:41:03.008Z,19.30
2022-11-23T16:43:41.066Z,22.17
2022-11-23T16:46:12.726Z,28.25
2022-11-23T16:48:42.696Z,26.48
2022-11-23T16:51:16.744Z,25.75
2022-11-23T16:54:13.011Z,20.02
2022-11-23T16:56:46.726Z,26.17
2022-11-23T16:59:24.306Z,23.10
2022-11-23T17:01:57.337Z,30.77
2022-11-23T17:04:25.809Z,26.30
2022-11-23T17:06:53.097Z,29.90
2022-11-23T17:09:20.682Z,26.33
2022-11-23T17:11:51.086Z,24.10
2022-11-23T17:14:19.382Z,23.33
2022-11-23T17:16:56.869Z,30.13
2022-11-23T17:19:23.728Z,26.90
2022-11-23T17:21:50.749Z,26.00
2022-11-23T17:24:17.405Z,26.88
2022-11-23T17:26:52.834Z,21.10
2022-11-23T17:29:21.162Z,20.83
2022-11-23T17:31:50.397Z,22.25
2022-11-23T17:34:17.907Z,22.52
2022-11-23T17:36:53.915Z,24.77
2022-11-23T17:39:27.742Z,20.08
2022-11-23T17:41:57.658Z,22.95
2022-11-23T17:44:33.320Z,22.95
2022-11-23T17:47:02.724Z,30.13
2022-11-23T17:49:31.138Z,22.25
2022-11-23T17:52:04.354Z,33.25
2022-11-23T17:54:32.573Z,20.50
2022-11-23T17:57:00.294Z,31.08
2022-11-23T17:59:36.435Z,23.75
2022-11-23T18:02:03.153Z,28.13
2022-11-23T18:04:29.988Z,40.22
2022-11-23T18:06:56.592Z,24.70
2022-11-23T18:09:23.386Z,25.88
2022-11-23T18:11:50.070Z,26.88
2022-11-23T18:14:19.125Z,31.73
2022-11-23T18:16:48.965Z,28.48
2022-11-23T18:19:19.828Z,27.48
2022-11-23T18:22:02.923Z,33.60
2022-11-23T18:24:33.534Z,32.47
2022-11-23T18:27:00.470Z,29.40
2022-11-23T18:29:28.801Z,22.00
2022-11-23T18:32:00.955Z,24.00
2022-11-23T18:36:55.938Z,23.48
2022-11-23T18:39:22.798Z,26.73
2022-11-23T18:41:49.356Z,32.13
2022-11-23T18:44:15.964Z,31.13
2022-11-23T18:46:44.977Z,24.02
2022-11-23T18:49:14.796Z,28.73
2022-11-23T18:51:41.832Z,35.38
2022-11-23T18:54:09.509Z,22.02
2022-11-23T18:56:36.609Z,34.67
2022-11-23T18:59:04.606Z,36.05
2022-11-23T19:01:40.527Z,29.42
2022-11-23T19:04:07.542Z,45.50
2022-11-23T19:06:36.542Z,40.17
2022-11-23T19:09:03.405Z,37.92
2022-11-23T19:11:34.681Z,41.45
2022-11-23T19:14:08.893Z,47.47
2022-11-23T19:16:38.684Z,41.15
2022-11-23T19:19:07.946Z,35.63
2022-11-23T19:21:36.064Z,41.58
2022-11-23T19:24:08.100Z,42.05
2022-11-23T19:26:34.962Z,42.17
2022-11-23T19:29:05.334Z,43.67
2022-11-23T19:31:33.115Z,36.13
2022-11-23T19:34:06.181Z,44.67
2022-11-23T19:36:36.507Z,43.63
2022-11-23T19:39:12.641Z,44.50
2022-11-23T19:41:40.710Z,40.80
2022-11-23T19:44:10.513Z,38.20
2022-11-23T19:46:40.654Z,39.95
2022-11-23T19:49:09.021Z,35.05
2022-11-23T19:51:36.648Z,37.53
2022-11-23T19:54:03.726Z,36.83
2022-11-23T19:56:33.788Z,38.45
2022-11-23T19:59:02.353Z,42.97
2022-11-23T20:01:36.739Z,43.05
2022-11-23T20:04:09.702Z,42.65
2022-11-23T20:06:42.757Z,41.72
2022-11-23T20:09:25.054Z,39.33
2022-11-23T20:14:19.631Z,39.45
2022-11-23T20:16:48.148Z,36.42
2022-11-23T20:19:15.116Z,37.45
2022-11-23T20:21:48.536Z,32.45
2022-11-23T20:24:15.959Z,39.40
2022-11-23T20:26:46.380Z,43.72
2022-11-23T20:29:14.489Z,27.17
2022-11-23T20:31:42.901Z,41.13
2022-11-23T20:34:18.421Z,31.77
2022-11-23T20:36:48.681Z,34.92
2022-11-23T20:39:16.564Z,31.17
2022-11-23T20:41:44.437Z,35.13
2022-11-23T20:44:14.324Z,40.03
2022-11-23T20:47:01.442Z,34.53
2022-11-23T20:49:33.876Z,39.83
2022-11-23T20:52:04.916Z,97.90
2022-11-23T20:54:32.253Z,44.63
2022-11-23T20:57:00.694Z,58.58
2022-11-23T20:59:29.271Z,48.60
2022-11-23T21:02:00.247Z,41.55
2022-11-23T21:04:27.121Z,43.45
2022-11-23T21:06:54.701Z,47.28
2022-11-23T21:09:21.500Z,33.85
2022-11-23T21:12:07.037Z,34.83
2022-11-23T21:14:35.023Z,35.75
2022-11-23T21:17:02.812Z,37.42
2022-11-23T21:19:33.250Z,36.15
2022-11-23T21:22:07.156Z,33.28
2022-11-23T21:24:44.483Z,33.55
2022-11-23T21:27:18.887Z,39.00
2022-11-23T21:29:47.955Z,42.78
2022-11-23T21:32:15.236Z,32.17
2022-11-23T21:34:46.633Z,35.88
2022-11-23T21:37:17.663Z,33.05
2022-11-23T21:39:49.476Z,36.92
2022-11-23T21:42:28.030Z,35.88
2022-11-23T21:44:56.732Z,34.08
2022-11-23T21:47:23.485Z,38.55
2022-11-23T21:49:51.482Z,41.40
2022-11-23T21:52:18.137Z,34.40
2022-11-23T21:54:48.937Z,34.15
2022-11-23T21:57:16.048Z,37.87
2022-11-23T21:59:42.613Z,36.50
2022-11-23T22:02:12.296Z,32.15
2022-11-23T22:04:39.733Z,35.08
2022-11-23T22:07:10.005Z,32.15
2022-11-23T22:09:38.498Z,31.33
2022-11-23T22:12:11.497Z,36.40
2022-11-23T22:14:52.402Z,32.63
2022-11-23T22:17:22.348Z,28.27
2022-11-23T22:20:04.369Z,34.83
2022-11-23T22:22:37.563Z,27.95
2022-11-23T22:25:07.557Z,25.13
2022-11-23T22:27:37.434Z,22.85
2022-11-23T22:30:20.643Z,23.88
2022-11-23T22:32:50.027Z,20.50
2022-11-23T22:35:17.363Z,21.85
2022-11-23T22:37:46.612Z,23.15
2022-11-23T22:40:19.429Z,23.50
2022-11-23T22:42:46.141Z,21.50
2022-11-23T22:45:17.295Z,28.00
2022-11-23T22:47:51.047Z,20.73
2022-11-23T22:50:22.489Z,17.67
2022-11-23T22:52:49.782Z,22.90
2022-11-23T22:55:16.757Z,17.67
2022-11-23T22:57:43.643Z,22.52
2022-11-23T23:00:11.096Z,21.15
2022-11-23T23:02:38.046Z,20.25
2022-11-23T23:05:05.264Z,17.92
2022-11-23T23:07:33.402Z,17.33
2022-11-23T23:10:03.652Z,16.35
2022-11-23T23:12:33.252Z,17.02
2022-11-23T23:15:01.657Z,15.25
2022-11-23T23:17:28.776Z,15.30
2022-11-23T23:20:01.386Z,18.90
2022-11-23T23:22:29.868Z,17.13
2022-11-23T23:25:07.722Z,13.73
2022-11-23T23:27:35.721Z,16.77
2022-11-23T23:30:06.634Z,14.45
2022-11-23T23:32:36.878Z,19.35
2022-11-23T23:35:07.243Z,13.27
2022-11-23T23:37:40.496Z,15.30
2022-11-23T23:40:10.850Z,16.35
2022-11-23T23:42:43.093Z,17.33
2022-11-23T23:45:14.830Z,14.90
2022-11-23T23:47:41.427Z,16.42
2022-11-23T23:50:09.727Z,13.73
2022-11-23T23:52:38.073Z,16.75
2022-11-23T23:55:07.638Z,14.32
2022-11-23T23:57:42.931Z,15.70
